createdAt,value
2022-11-30T00:01:31.955Z,2.97
2022-11-30T00:03:59.665Z,2.50
2022-11-30T00:06:27.325Z,3.17
2022-11-30T00:08:55.306Z,3.30
2022-11-30T00:11:24.992Z,2.87
2022-11-30T00:13:52.644Z,2.97
2022-11-30T00:16:20.361Z,2.83
2022-11-30T00:18:48.107Z,2.93
2022-11-30T00:21:16.199Z,3.03
2022-11-30T00:23:44.826Z,3.17
2022-11-30T00:26:13.358Z,2.87
2022-11-30T00:28:43.181Z,3.43
2022-11-30T00:31:12.249Z,3.37
2022-11-30T00:33:40.055Z,3.37
2022-11-30T00:36:08.707Z,3.17
2022-11-30T00:38:36.928Z,3.20
2022-11-30T00:41:04.932Z,3.33
2022-11-30T00:43:32.684Z,3.80
2022-11-30T00:46:02.038Z,4.10
2022-11-30T00:48:29.864Z,4.00
2022-11-30T00:50:57.811Z,3.70
2022-11-30T00:53:25.601Z,4.40
2022-11-30T00:55:53.260Z,3.67
2022-11-30T00:58:21.047Z,4.37
2022-11-30T01:00:48.695Z,4.50
2022-11-30T01:03:17.698Z,5.13
2022-11-30T01:05:45.373Z,4.50
2022-11-30T01:08:14.013Z,4.57
2022-11-30T01:10:43.238Z,4.63
2022-11-30T01:13:11.471Z,4.37
2022-11-30T01:15:39.711Z,5.10
2022-11-30T01:18:07.542Z,4.07
2022-11-30T01:20:36.641Z,4.57
2022-11-30T01:23:04.302Z,4.47
2022-11-30T01:25:31.965Z,4.37
2022-11-30T01:27:59.629Z,4.70
2022-11-30T01:30:27.295Z,4.80
2022-11-30T01:32:55.232Z,5.07
2022-11-30T01:35:23.120Z,4.63
2022-11-30T01:37:52.150Z,4.57
2022-11-30T01:40:19.846Z,5.00
2022-11-30T01:42:48.454Z,4.40
2022-11-30T01:45:16.257Z,5.07
2022-11-30T01:47:46.041Z,5.27
2022-11-30T01:50:16.499Z,4.03
2022-11-30T01:52:45.906Z,4.90
2022-11-30T01:55:18.993Z,4.83
2022-11-30T01:57:49.020Z,4.83
2022-11-30T02:00:17.445Z,5.40
2022-11-30T02:02:48.982Z,5.57
2022-11-30T02:05:17.425Z,5.17
2022-11-30T02:07:45.298Z,4.90
2022-11-30T02:10:18.463Z,4.83
2022-11-30T02:12:53.581Z,5.27
2022-11-30T02:15:22.602Z,4.90
2022-11-30T02:17:54.937Z,4.83
2022-11-30T02:20:33.815Z,5.10
2022-11-30T02:23:11.784Z,5.63
2022-11-30T02:25:44.309Z,5.20
2022-11-30T02:28:17.375Z,4.43
2022-11-30T02:30:50.141Z,5.37
2022-11-30T02:33:19.661Z,5.23
2022-11-30T02:35:53.178Z,4.30
2022-11-30T02:38:23.168Z,5.03
2022-11-30T02:40:50.892Z,4.90
2022-11-30T02:43:19.961Z,4.80
2022-11-30T02:45:50.707Z,4.27
2022-11-30T02:48:19.672Z,5.03
2022-11-30T02:50:49.721Z,4.77
2022-11-30T02:53:17.733Z,4.90
2022-11-30T02:55:45.378Z,4.80
2022-11-30T02:58:13.266Z,4.97
2022-11-30T03:00:40.917Z,4.30
2022-11-30T03:03:09.932Z,4.73
2022-11-30T03:05:37.575Z,4.53
2022-11-30T03:08:05.278Z,4.73
2022-11-30T03:10:32.958Z,5.03
2022-11-30T03:13:00.955Z,4.80
2022-11-30T03:15:29.026Z,5.20
2022-11-30T03:17:57.836Z,4.07
2022-11-30T03:20:26.975Z,5.40
2022-11-30T03:22:54.906Z,4.80
2022-11-30T03:25:22.558Z,5.00
2022-11-30T03:27:50.187Z,4.90
2022-11-30T03:30:18.044Z,4.33
2022-11-30T03:32:45.681Z,5.07
2022-11-30T03:35:13.435Z,4.90
2022-11-30T03:37:42.469Z,4.87
2022-11-30T03:40:10.557Z,5.27
2022-11-30T03:42:38.259Z,4.40
2022-11-30T03:45:06.486Z,4.60
2022-11-30T03:47:34.164Z,5.23
2022-11-30T03:50:01.787Z,4.97
2022-11-30T03:52:29.503Z,4.87
2022-11-30T03:54:58.505Z,4.67
2022-11-30T03:57:26.345Z,5.13
2022-11-30T03:59:54.151Z,5.10
2022-11-30T04:02:21.937Z,5.07
2022-11-30T04:04:49.786Z,5.17
2022-11-30T04:07:17.710Z,5.13
2022-11-30T04:09:45.451Z,5.53
2022-11-30T04:12:14.502Z,6.20
2022-11-30T04:14:42.175Z,5.43
2022-11-30T04:17:09.855Z,5.17
2022-11-30T04:19:37.492Z,5.43
2022-11-30T04:22:05.140Z,5.93
2022-11-30T04:24:32.913Z,5.67
2022-11-30T04:27:00.550Z,5.63
2022-11-30T04:29:29.610Z,5.63
2022-11-30T04:31:57.275Z,6.37
2022-11-30T04:34:28.387Z,6.10
2022-11-30T04:37:00.318Z,6.00
2022-11-30T04:39:28.428Z,6.00
2022-11-30T04:41:56.615Z,5.83
2022-11-30T04:44:25.002Z,7.03
2022-11-30T04:46:54.081Z,5.47
2022-11-30T04:49:21.837Z,5.70
2022-11-30T04:51:49.499Z,5.93
2022-11-30T04:54:17.124Z,5.80
2022-11-30T04:56:44.816Z,6.50
2022-11-30T04:59:12.489Z,5.80
2022-11-30T05:01:40.172Z,5.80
2022-11-30T05:04:09.253Z,5.97
2022-11-30T05:06:36.916Z,6.77
2022-11-30T05:09:04.661Z,6.33
2022-11-30T05:11:32.331Z,5.93
2022-11-30T05:14:00.022Z,6.17
2022-11-30T05:16:27.801Z,7.13
2022-11-30T05:18:58.532Z,5.67
2022-11-30T05:21:27.794Z,6.93
2022-11-30T05:23:55.534Z,7.00
2022-11-30T05:26:23.170Z,8.27
2022-11-30T05:28:50.838Z,7.03
2022-11-30T05:31:18.612Z,6.40
2022-11-30T05:33:50.812Z,6.43
2022-11-30T05:36:18.439Z,6.97
2022-11-30T05:38:47.858Z,7.30
2022-11-30T05:41:15.559Z,7.87
2022-11-30T05:43:43.196Z,7.20
2022-11-30T05:46:11.316Z,7.20
2022-11-30T05:48:39.251Z,7.80
2022-11-30T05:51:07.154Z,7.57
2022-11-30T05:53:34.915Z,7.67
2022-11-30T05:56:04.641Z,6.93
2022-11-30T05:58:32.392Z,7.17
2022-11-30T06:01:00.076Z,7.30
2022-11-30T06:03:29.215Z,7.13
2022-11-30T06:05:57.060Z,6.83
2022-11-30T06:08:25.212Z,6.17
2022-11-30T06:10:53.654Z,6.13
2022-11-30T06:13:28.599Z,6.77
2022-11-30T06:15:59.876Z,6.83
2022-11-30T06:18:27.627Z,7.13
2022-11-30T06:20:55.332Z,7.23
2022-11-30T06:23:22.998Z,6.97
2022-11-30T06:25:50.662Z,6.73
2022-11-30T06:28:18.357Z,7.03
2022-11-30T06:30:47.382Z,6.50
2022-11-30T06:33:15.025Z,6.23
2022-11-30T06:35:45.682Z,6.63
2022-11-30T06:38:13.343Z,7.10
2022-11-30T06:40:41.011Z,6.57
2022-11-30T06:43:08.649Z,6.70
2022-11-30T06:45:36.528Z,6.87
2022-11-30T06:48:05.790Z,6.33
2022-11-30T06:50:33.445Z,6.00
2022-11-30T06:53:04.154Z,7.00
2022-11-30T06:55:32.968Z,6.70
2022-11-30T06:58:05.973Z,6.33
2022-11-30T07:00:33.635Z,6.00
2022-11-30T07:03:04.058Z,5.77
2022-11-30T07:05:34.699Z,6.47
2022-11-30T07:08:03.304Z,6.00
2022-11-30T07:10:31.080Z,8.20
2022-11-30T07:12:58.756Z,7.20
2022-11-30T07:15:28.634Z,6.17
2022-11-30T07:17:58.313Z,6.83
2022-11-30T07:20:26.515Z,6.27
2022-11-30T07:22:58.349Z,6.57
2022-11-30T07:25:44.404Z,6.60
2022-11-30T07:28:12.195Z,5.80
2022-11-30T07:30:39.867Z,6.80
2022-11-30T07:33:07.529Z,7.07
2022-11-30T07:35:35.194Z,6.60
2022-11-30T07:38:09.498Z,5.97
2022-11-30T07:40:37.468Z,6.33
2022-11-30T07:43:05.303Z,6.83
2022-11-30T07:45:32.985Z,6.03
2022-11-30T07:48:00.632Z,6.47
2022-11-30T07:50:28.295Z,7.20
2022-11-30T07:52:56.374Z,7.03
2022-11-30T07:55:46.001Z,6.07
2022-11-30T07:58:17.580Z,6.97
2022-11-30T08:00:45.756Z,6.70
2022-11-30T08:03:13.751Z,6.63
2022-11-30T08:05:41.855Z,6.67
2022-11-30T08:08:10.090Z,6.90
2022-11-30T08:10:38.474Z,7.57
2022-11-30T08:13:06.714Z,6.07
2022-11-30T08:15:39.016Z,7.30
2022-11-30T08:18:08.118Z,7.40
2022-11-30T08:20:38.034Z,8.03
2022-11-30T08:23:06.087Z,7.13
2022-11-30T08:25:35.571Z,7.43
2022-11-30T08:28:03.492Z,6.80
2022-11-30T08:30:32.757Z,6.53
2022-11-30T08:33:02.739Z,6.60
2022-11-30T08:35:30.803Z,6.93
2022-11-30T08:37:58.906Z,6.50
2022-11-30T08:40:29.845Z,7.27
2022-11-30T08:42:59.917Z,6.77
2022-11-30T08:45:28.562Z,7.70
2022-11-30T08:47:59.649Z,7.70
2022-11-30T08:50:29.205Z,7.43
2022-11-30T08:53:06.090Z,7.50
2022-11-30T08:55:34.425Z,7.03
2022-11-30T08:58:02.591Z,6.63
2022-11-30T09:00:30.463Z,6.93
2022-11-30T09:02:58.496Z,6.80
2022-11-30T09:05:29.040Z,5.83
2022-11-30T09:07:59.752Z,7.27
2022-11-30T09:10:28.258Z,6.20
2022-11-30T09:12:57.705Z,6.00
2022-11-30T09:15:28.893Z,6.40
2022-11-30T09:18:00.083Z,6.57
2022-11-30T09:20:28.208Z,7.30
2022-11-30T09:23:00.566Z,7.47
2022-11-30T09:25:30.548Z,6.20
2022-11-30T09:27:58.642Z,6.13
2022-11-30T09:30:28.676Z,5.87
2022-11-30T09:33:00.655Z,5.87
2022-11-30T09:35:28.783Z,6.03
2022-11-30T09:37:59.886Z,5.83
2022-11-30T09:40:34.045Z,6.67
2022-11-30T09:43:07.180Z,6.00
2022-11-30T09:45:36.334Z,5.53
2022-11-30T09:48:15.127Z,6.43
2022-11-30T09:50:44.845Z,7.00
2022-11-30T09:53:16.320Z,6.13
2022-11-30T09:55:46.113Z,5.77
2022-11-30T09:58:18.045Z,6.23
2022-11-30T10:00:46.063Z,6.67
2022-11-30T10:03:14.617Z,6.20
2022-11-30T10:05:45.348Z,6.27
2022-11-30T10:08:21.235Z,6.93
2022-11-30T10:10:54.952Z,6.70
2022-11-30T10:13:31.563Z,7.30
2022-11-30T10:16:04.544Z,6.67
2022-11-30T10:18:38.057Z,7.27
2022-11-30T10:21:12.287Z,6.33
2022-11-30T10:23:55.674Z,7.03
2022-11-30T10:26:28.147Z,6.87
2022-11-30T10:28:59.249Z,6.67
2022-11-30T10:31:30.290Z,7.07
2022-11-30T10:34:00.375Z,6.73
2022-11-30T10:36:34.861Z,7.43
2022-11-30T10:39:13.085Z,7.17
2022-11-30T10:41:45.901Z,6.77
2022-11-30T10:44:16.606Z,7.40
2022-11-30T10:46:47.382Z,6.43
2022-11-30T10:49:18.107Z,8.10
2022-11-30T10:51:47.860Z,6.53
2022-11-30T10:54:16.935Z,7.20
2022-11-30T10:56:46.299Z,6.67
2022-11-30T10:59:18.570Z,7.63
2022-11-30T11:01:46.575Z,7.60
2022-11-30T11:04:18.852Z,6.97
2022-11-30T11:10:14.573Z,7.80
2022-11-30T11:12:47.751Z,8.10
2022-11-30T11:15:19.248Z,7.37
2022-11-30T11:17:47.314Z,7.27
2022-11-30T11:20:34.881Z,7.40
2022-11-30T11:23:04.168Z,7.17
2022-11-30T11:25:34.253Z,8.17
2022-11-30T11:28:09.258Z,7.77
2022-11-30T11:30:38.119Z,7.50
2022-11-30T11:33:17.849Z,6.13
2022-11-30T11:35:47.190Z,6.37
2022-11-30T11:38:22.122Z,6.63
2022-11-30T11:40:57.397Z,7.43
2022-11-30T11:43:28.119Z,8.20
2022-11-30T11:45:58.118Z,7.77
2022-11-30T11:48:31.298Z,9.03
2022-11-30T11:51:08.317Z,7.43
2022-11-30T11:53:46.090Z,8.60
2022-11-30T11:56:19.653Z,7.63
2022-11-30T11:58:51.852Z,8.70
2022-11-30T12:01:41.906Z,7.70
2022-11-30T12:04:32.711Z,8.47
2022-11-30T12:07:02.695Z,8.27
2022-11-30T12:09:32.435Z,8.50
2022-11-30T12:12:00.409Z,8.17
2022-11-30T12:14:31.785Z,7.93
2022-11-30T12:17:07.185Z,8.47
2022-11-30T12:19:38.292Z,8.23
2022-11-30T12:22:14.241Z,7.67
2022-11-30T12:24:53.287Z,8.87
2022-11-30T12:27:24.299Z,7.77
2022-11-30T12:29:58.545Z,7.80
2022-11-30T12:32:32.358Z,8.20
2022-11-30T12:35:07.202Z,7.47
2022-11-30T12:37:47.165Z,8.77
2022-11-30T12:40:20.559Z,8.17
2022-11-30T12:42:53.562Z,8.37
2022-11-30T12:45:26.349Z,7.10
2022-11-30T12:48:00.457Z,8.77
2022-11-30T12:50:47.217Z,7.43
2022-11-30T12:53:19.215Z,8.80
2022-11-30T12:55:49.267Z,7.67
2022-11-30T12:58:21.183Z,7.10
2022-11-30T13:00:57.429Z,7.97
2022-11-30T13:03:38.028Z,8.17
2022-11-30T13:06:08.634Z,7.47
2022-11-30T13:08:38.656Z,8.10
2022-11-30T13:11:09.807Z,7.67
2022-11-30T13:13:37.863Z,6.47
2022-11-30T13:16:09.380Z,8.17
2022-11-30T13:18:37.586Z,7.63
2022-11-30T13:21:07.166Z,6.97
2022-11-30T13:23:37.761Z,7.20
2022-11-30T13:26:10.351Z,7.70
2022-11-30T13:28:54.511Z,7.90
2022-11-30T13:31:26.158Z,7.63
2022-11-30T13:33:59.279Z,7.23
2022-11-30T13:36:30.863Z,8.00
2022-11-30T13:39:19.459Z,7.90
2022-11-30T13:41:48.727Z,7.13
2022-11-30T13:44:24.172Z,7.07
2022-11-30T13:46:54.292Z,7.47
2022-11-30T13:49:23.884Z,7.17
2022-11-30T13:52:19.996Z,8.10
2022-11-30T13:54:44.117Z,7.33
2022-11-30T13:57:19.330Z,7.37
2022-11-30T13:59:48.235Z,7.20
2022-11-30T14:02:41.038Z,6.97
2022-11-30T14:05:36.327Z,7.30
2022-11-30T14:08:18.337Z,7.77
2022-11-30T14:10:47.476Z,7.10
2022-11-30T14:13:29.296Z,6.53
2022-11-30T14:15:58.311Z,7.33
2022-11-30T14:18:32.627Z,6.67
2022-11-30T14:21:04.033Z,6.83
2022-11-30T14:23:33.423Z,6.77
2022-11-30T14:26:07.577Z,7.40
2022-11-30T14:28:40.337Z,6.90
2022-11-30T14:31:10.487Z,6.80
2022-11-30T14:33:42.919Z,6.33
2022-11-30T14:36:12.428Z,6.77
2022-11-30T14:38:41.486Z,7.07
2022-11-30T14:41:20.382Z,6.70
2022-11-30T14:44:01.544Z,6.83
2022-11-30T14:46:29.578Z,7.33
2022-11-30T14:49:07.543Z,6.80
2022-11-30T14:51:38.399Z,6.40
2022-11-30T14:54:11.755Z,7.27
2022-11-30T14:56:42.285Z,6.17
2022-11-30T14:59:17.196Z,6.40
2022-11-30T15:01:45.137Z,7.30
2022-11-30T15:04:14.690Z,6.17
2022-11-30T15:06:44.540Z,6.23
2022-11-30T15:09:16.508Z,6.50
2022-11-30T15:11:44.712Z,6.63
2022-11-30T15:14:12.846Z,6.43
2022-11-30T15:16:47.617Z,6.53
2022-11-30T15:19:23.549Z,6.07
2022-11-30T15:21:53.976Z,6.37
2022-11-30T15:24:22.226Z,6.30
2022-11-30T15:26:54.164Z,6.00
2022-11-30T15:29:24.855Z,6.43
2022-11-30T15:31:53.833Z,6.10
2022-11-30T15:34:22.942Z,6.30
2022-11-30T15:36:54.315Z,7.07
2022-11-30T15:39:23.670Z,6.80
2022-11-30T15:41:55.175Z,6.03
2022-11-30T15:44:24.954Z,6.60
2022-11-30T15:46:59.660Z,7.07
2022-11-30T15:49:28.154Z,5.67
2022-11-30T15:52:05.788Z,6.80
2022-11-30T15:54:47.716Z,6.10
2022-11-30T16:00:43.160Z,5.53
2022-11-30T16:03:16.029Z,7.50
2022-11-30T16:05:55.239Z,7.20
2022-11-30T16:08:24.842Z,6.30
2022-11-30T16:10:52.752Z,5.87
2022-11-30T16:16:42.274Z,6.63
2022-11-30T16:19:10.448Z,5.60
2022-11-30T16:21:38.503Z,6.67
2022-11-30T16:24:08.132Z,7.13
2022-11-30T16:26:50.441Z,6.20
2022-11-30T16:29:19.470Z,6.33
2022-11-30T16:31:47.520Z,6.60
2022-11-30T16:34:15.493Z,6.90
2022-11-30T16:36:43.396Z,6.47
2022-11-30T16:39:14.255Z,6.53
2022-11-30T16:41:43.553Z,6.60
2022-11-30T16:44:13.603Z,6.87
2022-11-30T16:46:41.510Z,6.03
2022-11-30T16:49:09.489Z,6.53
2022-11-30T16:51:37.683Z,7.17
2022-11-30T16:54:05.797Z,6.50
2022-11-30T16:56:35.096Z,6.57
2022-11-30T16:59:03.125Z,7.07
2022-11-30T17:01:35.491Z,7.37
2022-11-30T17:04:06.321Z,6.07
2022-11-30T17:06:34.289Z,6.97
2022-11-30T17:09:02.179Z,6.83
2022-11-30T17:11:31.774Z,6.80
2022-11-30T17:14:01.167Z,6.83
2022-11-30T17:16:29.142Z,7.37
2022-11-30T17:18:57.161Z,6.77
2022-11-30T17:21:26.824Z,7.13
2022-11-30T17:23:55.102Z,8.30
2022-11-30T17:26:23.105Z,7.90
2022-11-30T17:28:51.026Z,7.00
2022-11-30T17:31:20.564Z,7.33
2022-11-30T17:33:48.754Z,7.67
2022-11-30T17:36:18.917Z,7.63
2022-11-30T17:38:46.898Z,8.10
2022-11-30T17:41:19.784Z,6.87
2022-11-30T17:43:48.326Z,6.93
2022-11-30T17:46:17.014Z,6.87
2022-11-30T17:48:46.486Z,7.90
2022-11-30T17:51:14.840Z,7.23
2022-11-30T17:53:44.404Z,6.73
2022-11-30T17:56:14.038Z,8.07
2022-11-30T17:58:44.205Z,8.13
2022-11-30T18:01:16.296Z,7.97
2022-11-30T18:03:44.434Z,6.77
2022-11-30T18:06:13.766Z,7.40
2022-11-30T18:08:41.650Z,7.73
2022-11-30T18:11:10.438Z,7.40
2022-11-30T18:13:38.588Z,7.33
2022-11-30T18:16:10.202Z,7.90
2022-11-30T18:18:40.576Z,6.73
2022-11-30T18:21:14.526Z,8.20
2022-11-30T18:23:42.715Z,7.73
2022-11-30T18:26:13.662Z,8.73
2022-11-30T18:28:41.828Z,8.13
2022-11-30T18:31:09.985Z,6.77
2022-11-30T18:33:38.406Z,8.43
2022-11-30T18:36:07.889Z,7.60
2022-11-30T18:38:38.806Z,7.17
2022-11-30T18:41:07.514Z,7.97
2022-11-30T18:43:35.861Z,6.97
2022-11-30T18:46:04.411Z,8.43
2022-11-30T18:48:32.469Z,7.67
2022-11-30T18:51:28.242Z,7.60
2022-11-30T18:53:59.535Z,8.50
2022-11-30T18:56:28.283Z,7.60
2022-11-30T18:58:57.640Z,9.20
2022-11-30T19:01:26.325Z,7.57
2022-11-30T19:03:55.307Z,8.33
2022-11-30T19:06:25.119Z,8.07
2022-11-30T19:08:53.036Z,8.03
2022-11-30T19:11:22.509Z,8.10
2022-11-30T19:13:54.170Z,7.73
2022-11-30T19:16:22.725Z,7.93
2022-11-30T19:18:50.641Z,8.27
2022-11-30T19:21:19.859Z,8.37
2022-11-30T19:23:48.078Z,8.90
2022-11-30T19:26:16.242Z,7.93
2022-11-30T19:28:46.281Z,7.47
2022-11-30T19:31:15.051Z,7.93
2022-11-30T19:33:43.927Z,8.03
2022-11-30T19:36:14.658Z,7.83
2022-11-30T19:38:42.584Z,8.20
2022-11-30T19:41:11.453Z,8.30
2022-11-30T19:43:39.854Z,8.33
2022-11-30T19:46:10.284Z,8.27
2022-11-30T19:48:38.482Z,7.77
2022-11-30T19:51:07.257Z,8.23
2022-11-30T19:53:35.462Z,8.53
2022-11-30T19:56:05.288Z,7.63
2022-11-30T19:58:33.243Z,7.77
2022-11-30T20:01:01.290Z,8.13
2022-11-30T20:03:33.677Z,8.73
2022-11-30T20:06:01.588Z,8.43
2022-11-30T20:08:29.512Z,8.47
2022-11-30T20:10:57.586Z,9.10
2022-11-30T20:13:25.522Z,8.40
2022-11-30T20:15:53.580Z,7.23
2022-11-30T20:18:21.545Z,7.83
2022-11-30T20:20:50.925Z,8.47
2022-11-30T20:23:18.801Z,7.43
2022-11-30T20:25:46.726Z,7.73
2022-11-30T20:28:14.632Z,8.30
2022-11-30T20:30:42.688Z,7.73
2022-11-30T20:33:10.734Z,7.90
2022-11-30T20:35:38.658Z,7.80
2022-11-30T20:38:07.989Z,7.03
2022-11-30T20:40:37.883Z,7.17
2022-11-30T20:43:05.803Z,7.20
2022-11-30T20:45:33.717Z,7.80
2022-11-30T20:48:01.657Z,7.70
2022-11-30T20:50:29.709Z,7.83
2022-11-30T20:52:57.598Z,7.40
2022-11-30T20:55:26.910Z,8.83
2022-11-30T20:57:55.014Z,8.43
2022-11-30T21:00:23.005Z,7.67
2022-11-30T21:02:51.036Z,7.97
2022-11-30T21:05:19.305Z,8.63
2022-11-30T21:07:47.338Z,7.40
2022-11-30T21:10:15.758Z,7.23
2022-11-30T21:12:45.090Z,7.03
2022-11-30T21:15:13.006Z,7.70
2022-11-30T21:17:40.923Z,7.50
2022-11-30T21:20:10.054Z,7.60
2022-11-30T21:22:37.939Z,7.87
2022-11-30T21:25:06.161Z,8.17
2022-11-30T21:27:34.059Z,7.77
2022-11-30T21:30:03.399Z,8.03
2022-11-30T21:32:31.428Z,7.67
2022-11-30T21:34:59.313Z,7.50
2022-11-30T21:37:27.352Z,7.50
2022-11-30T21:39:55.324Z,8.17
2022-11-30T21:42:23.301Z,8.17
2022-11-30T21:44:51.305Z,7.27
2022-11-30T21:47:20.672Z,6.57
2022-11-30T21:49:48.595Z,7.27
2022-11-30T21:52:16.603Z,7.63
2022-11-30T21:54:44.573Z,7.07
2022-11-30T21:57:12.462Z,7.07
2022-11-30T21:59:40.759Z,7.03
2022-11-30T22:02:10.726Z,7.23
2022-11-30T22:04:40.446Z,6.93
2022-11-30T22:07:08.760Z,6.57
2022-11-30T22:09:37.021Z,6.30
2022-11-30T22:12:05.225Z,7.00
2022-11-30T22:14:36.349Z,6.73
2022-11-30T22:17:04.315Z,7.53
2022-11-30T22:19:32.255Z,6.60
2022-11-30T22:22:01.614Z,7.10
2022-11-30T22:24:29.580Z,7.53
2022-11-30T22:26:57.508Z,6.63
2022-11-30T22:29:28.714Z,6.60
2022-11-30T22:31:56.828Z,6.33
2022-11-30T22:34:24.918Z,6.93
2022-11-30T22:36:52.845Z,6.97
2022-11-30T22:39:23.059Z,7.43
2022-11-30T22:41:55.501Z,7.03
2022-11-30T22:44:25.260Z,6.77
2022-11-30T22:46:53.245Z,7.73
2022-11-30T22:49:22.158Z,6.63
2022-11-30T22:51:50.641Z,7.13
2022-11-30T22:54:18.883Z,6.77
2022-11-30T22:56:48.244Z,6.90
2022-11-30T22:59:16.951Z,6.37
2022-11-30T23:01:46.479Z,6.50
2022-11-30T23:04:16.022Z,6.80
2022-11-30T23:06:44.728Z,6.37
2022-11-30T23:09:13.542Z,6.73
2022-11-30T23:11:41.625Z,5.90
2022-11-30T23:14:12.281Z,6.73
2022-11-30T23:16:40.446Z,6.50
2022-11-30T23:19:08.570Z,6.87
2022-11-30T23:21:40.944Z,7.40
2022-11-30T23:24:10.879Z,6.50
2022-11-30T23:26:39.675Z,6.53
2022-11-30T23:29:09.017Z,6.30
2022-11-30T23:31:39.032Z,6.70
2022-11-30T23:34:07.805Z,7.00
2022-11-30T23:36:36.028Z,6.83
2022-11-30T23:39:05.273Z,7.03
2022-11-30T23:41:33.199Z,7.43
2022-11-30T23:44:01.338Z,6.90
2022-11-30T23:46:29.434Z,6.47
2022-11-30T23:48:58.912Z,6.87
2022-11-30T23:51:26.943Z,7.80
2022-11-30T23:53:55.292Z,6.87
2022-11-30T23:56:24.431Z,7.33
2022-11-30T23:58:52.704Z,7.93
